Overview Statistics Trail Chart Weather Telemetry Raw packets
 

This is the latest recevied weather packets stored in our database for station/object N5ATR. If no packets are shown the sender has not sent any weather packets the latest 10 day(s).

<< 18 19 20 21 22 23 24 >>
Time Temp. Humidity Pressure Rain* Wind** Luminosity Snow
1788568130 20.56° C 61% 1022.3 hPa 0 mm - 46 W/m² -
1788567830 21.11° C 61% 1022.2 hPa 0 mm - 50 W/m² -
1788567525 21.11° C 59% 1022 hPa 0 mm - 54 W/m² -
1788567262 22.22° C 56% 1022.3 hPa 0 mm - 55 W/m² -
1788566920 22.78° C 53% 1021.9 hPa 0 mm - 44 W/m² -
1788566615 22.78° C 51% 1021.8 hPa 0 mm - 35 W/m² -
1788566311 25° C 41% 1021.5 hPa 0 mm - 37 W/m² -
1788566006 25° C 41% 1021.4 hPa 0 mm - 50 W/m² -
1788565701 25.56° C 41% 1021.3 hPa 0 mm - 66 W/m² -
1788565400 25.56° C 40% 1021 hPa 0 mm - 88 W/m² -
1788565097 25.56° C 40% 1021.2 hPa 0 mm - 96 W/m² -
1788564792 25.56° C 39% 1021.2 hPa 0 mm - 104 W/m² -
1788564489 25.56° C 39% 1020.7 hPa 0 mm - 110 W/m² -
1788564185 25.56° C 38% 1020.9 hPa 0 mm - 111 W/m² -
1788563884 26.11° C 38% 1020.9 hPa 0 mm - 107 W/m² -
1788563575 26.11° C 37% 1020.8 hPa 0 mm - 107 W/m² -
1788563271 26.11° C 38% 1020.9 hPa 0 mm - 110 W/m² -
1788562969 26.11° C 38% 1020.9 hPa 0 mm - 130 W/m² -
1788562664 26.67° C 37% 1021 hPa 0 mm - 136 W/m² -
1788562358 26.67° C 35% 1020.8 hPa 0 mm - 148 W/m² -
1788562057 26.67° C 35% 1020.7 hPa 0 mm - 157 W/m² -
1788561753 27.22° C 34% 1020.8 hPa 0 mm - 161 W/m² -
1788561452 27.22° C 34% 1020.7 hPa 0 mm - 181 W/m² -
1788561147 27.78° C 34% 1020.7 hPa 0 mm - 186 W/m² -
1788560842 27.78° C 34% 1020.7 hPa 0 mm - 230 W/m² -

* Rain latest hour (hover to see other rain measurements)
** Current wind speed in m/s (hover to see current wind gust speed)